Time;durP1;ratioP1;P1;durP2;ratioP2;P2;SDS_P1;SDS_P2;PMS_P1;PMS_P2;Temp;Humidity;BMP_temperature;BMP_pressure;BME280_temperature;BME280_humidity;BME280_pressure;Samples;Min_cycle;Max_cycle;Signal;HPM_P1;HPM_P2
2022/10/19 10:16:18;;;;;;;19.88;11.30;;;;;;;13.85;92.87;97402.72;2097254;27;144407;-63
2022/10/19 10:17:25;;;;;;;18.90;10.60;;;;;;;13.88;93.13;97400.81;2093659;28;20263;-63
2022/10/19 10:18:28;;;;;;;19.40;10.50;;;;;;;13.99;92.21;97397.72;2100171;28;20224;-63
2022/10/19 10:19:32;;;;;;;18.17;10.98;;;;;;;13.99;92.50;97400.34;2098928;28;20670;-64
2022/10/19 10:20:34;;;;;;;21.67;10.57;;;;;;;14.20;91.97;97403.72;2091494;28;20293;-64
2022/10/19 10:21:51;;;;;;;15.30;9.85;;;;;;;13.93;92.39;97399.75;2113973;28;20284;-64
2022/10/19 10:28:05;;;;;;;15.20;8.85;;;;;;;14.02;92.24;97404.59;2106950;28;20685;-63
2022/10/19 10:29:27;;;;;;;17.23;10.48;;;;;;;14.16;92.14;97404.78;2105320;28;20286;-63
2022/10/19 10:30:34;;;;;;;18.23;9.25;;;;;;;14.05;90.71;97396.56;2103926;28;20234;-64
2022/10/19 10:31:36;;;;;;;20.00;9.73;;;;;;;14.10;91.13;97394.56;2104545;28;20202;-64
2022/10/19 10:32:45;;;;;;;14.93;8.68;;;;;;;14.19;90.95;97394.16;2108449;28;20206;-63
2022/10/19 10:34:00;;;;;;;17.67;9.02;;;;;;;13.79;92.26;97395.13;2107623;28;20194;-64
2022/10/19 11:47:07;;;;;;;7.60;5.15;;;;;;;13.62;90.45;97312.78;2105127;27;20548;-63
2022/10/19 11:48:50;;;;;;;8.35;5.00;;;;;;;13.75;89.59;97325.34;2105602;28;20334;-63
2022/10/19 11:50:07;;;;;;;8.10;4.20;;;;;;;13.85;89.88;97316.97;2085517;28;20854;-63
2022/10/19 11:51:28;;;;;;;8.70;4.72;;;;;;;13.85;89.70;97314.34;2088459;28;20222;-64
2022/10/19 11:52:45;;;;;;;6.63;4.82;;;;;;;14.01;89.52;97322.31;2097231;28;20269;-63
2022/10/19 11:53:52;;;;;;;13.50;4.47;;;;;;;14.14;88.33;97312.06;2094939;28;20650;-64
2022/10/19 11:55:15;;;;;;;8.23;4.72;;;;;;;14.22;88.51;97319.63;2094187;28;20225;-63
2022/10/19 12:35:32;;;;;;;13.57;4.03;;;;;;;14.90;84.98;97289.94;2106415;27;20512;-64
2022/10/19 13:07:03;;;;;;;9.00;4.25;;;;;;;14.86;84.62;97247.19;2106361;27;20520;-63
2022/10/19 13:08:06;;;;;;;7.45;4.80;;;;;;;14.73;84.79;97242.66;2097495;28;20250;-64
2022/10/19 13:09:46;;;;;;;9.52;4.47;;;;;;;14.90;85.02;97247.03;2097033;28;20245;-63
2022/10/19 13:34:42;;;;;;;7.97;4.30;;;;;;;14.87;83.43;97206.00;2107173;27;20603;-63
2022/10/19 13:35:44;;;;;;;7.15;3.35;;;;;;;15.08;82.76;97203.97;2080828;28;20680;-63
2022/10/19 13:37:00;;;;;;;10.43;4.25;;;;;;;15.19;83.27;97213.94;2084183;28;20280;-63
2022/10/19 13:38:09;;;;;;;11.07;3.78;;;;;;;15.39;82.35;97206.72;2085955;28;20303;-66
2022/10/19 13:39:12;;;;;;;6.47;3.90;;;;;;;15.27;82.55;97203.81;2086401;28;20288;-65
2022/10/19 13:40:19;;;;;;;11.30;3.33;;;;;;;15.32;82.58;97204.41;2088314;28;20235;-65
2022/10/19 13:47:07;;;;;;;11.40;4.18;;;;;;;15.22;82.18;97197.97;2109100;27;20520;-62
2022/10/19 13:48:26;;;;;;;9.05;4.63;;;;;;;15.23;82.34;97189.13;2103053;28;20711;-63
2022/10/19 13:49:33;;;;;;;7.35;4.35;;;;;;;15.50;81.37;97194.66;2096813;28;20226;-63
2022/10/19 13:50:42;;;;;;;13.45;3.90;;;;;;;15.50;81.64;97193.81;2084113;28;20196;-63
2022/10/19 13:51:59;;;;;;;7.07;4.05;;;;;;;15.51;81.39;97199.00;2089720;28;20275;-63
2022/10/19 13:53:28;;;;;;;7.25;3.63;;;;;;;15.50;81.51;97192.03;2085692;28;20251;-64
2022/10/19 13:54:59;;;;;;;6.80;3.83;;;;;;;15.70;81.12;97191.84;2074106;28;20663;-64
2022/10/19 13:56:39;;;;;;;8.18;3.15;;;;;;;15.59;81.54;97182.78;2069425;28;20271;-63
2022/10/19 13:57:47;;;;;;;16.90;5.45;;;;;;;15.69;81.10;97172.56;2068169;28;20221;-63
2022/10/19 13:59:10;;;;;;;9.00;4.47;;;;;;;16.05;79.46;97179.31;2082287;28;20254;-63
2022/10/19 14:00:17;;;;;;;12.38;4.57;;;;;;;15.85;79.33;97171.75;2079199;28;20240;-65
2022/10/19 14:01:44;;;;;;;8.63;4.70;;;;;;;15.79;79.61;97141.28;2085079;28;20225;-66
2022/10/19 14:02:59;;;;;;;6.40;4.45;;;;;;;15.97;79.20;97163.09;2082130;28;20333;-65
2022/10/19 14:04:18;;;;;;;8.93;5.03;;;;;;;15.93;79.34;97164.22;2081614;28;20197;-66
2022/10/19 14:05:43;;;;;;;6.43;4.70;;;;;;;15.76;80.19;97173.91;2079350;28;20223;-64
2022/10/19 14:06:56;;;;;;;12.18;5.35;;;;;;;16.21;78.54;97166.09;2081537;28;20638;-63
2022/10/19 14:08:33;;;;;;;7.85;5.38;;;;;;;16.12;78.74;97169.25;2081779;28;20328;-63
2022/10/19 14:10:00;;;;;;;6.32;4.38;;;;;;;16.00;79.05;97150.59;2080624;28;20664;-63
2022/10/19 14:11:14;;;;;;;13.18;5.32;;;;;;;16.18;78.59;97168.06;2074552;28;20303;-63
2022/10/19 14:12:22;;;;;;;7.30;5.10;;;;;;;16.06;78.46;97170.50;2077022;28;20287;-63
2022/10/19 14:13:23;;;;;;;7.93;4.75;;;;;;;16.41;78.22;97162.25;2078982;28;20200;-63
2022/10/19 14:14:27;;;;;;;11.55;5.68;;;;;;;16.95;76.30;97161.66;2081914;28;20673;-63
2022/10/19 14:15:34;;;;;;;13.18;4.45;;;;;;;16.90;76.14;97157.56;2080813;28;20237;-63
2022/10/19 14:17:00;;;;;;;6.95;4.57;;;;;;;17.02;75.18;97175.31;2080818;28;20692;-63
2022/10/19 14:18:26;;;;;;;8.13;5.30;;;;;;;16.45;76.41;97163.75;2078987;28;20233;-63
2022/10/19 14:19:49;;;;;;;8.05;4.75;;;;;;;16.45;76.57;97160.28;2079127;28;20263;-63
2022/10/19 14:20:59;;;;;;;9.05;4.65;;;;;;;17.21;75.28;97164.44;2072017;28;20304;-63
2022/10/19 14:22:18;;;;;;;11.65;6.43;;;;;;;17.49;73.36;97164.47;2082658;28;20231;-63
2022/10/19 14:23:23;;;;;;;10.93;5.20;;;;;;;17.38;73.65;97154.59;2078499;28;20285;-63
2022/10/19 14:24:32;;;;;;;6.25;4.43;;;;;;;17.52;73.21;97166.91;2084164;28;20250;-63
2022/10/19 14:25:33;;;;;;;7.57;3.97;;;;;;;17.35;73.07;97163.56;2075958;28;20227;-65
2022/10/19 14:26:35;;;;;;;7.40;4.35;;;;;;;16.70;75.72;97161.44;2086038;28;20718;-63
2022/10/19 14:27:37;;;;;;;8.23;4.80;;;;;;;16.84;75.33;97131.59;2086992;28;20238;-63
2022/10/19 14:28:40;;;;;;;7.15;5.18;;;;;;;16.86;75.91;97163.97;2077136;28;20224;-63
2022/10/19 14:29:45;;;;;;;7.88;5.30;;;;;;;16.58;76.76;97165.66;2078396;28;20300;-63
2022/10/19 14:30:55;;;;;;;12.48;4.75;;;;;;;16.88;76.20;97162.94;2080346;28;20316;-63
2022/10/19 14:32:02;;;;;;;8.07;4.82;;;;;;;17.08;75.01;97159.09;2080975;28;20230;-63
2022/10/19 14:51:38;;;;;;;11.15;4.80;;;;;;;16.71;75.37;97140.25;2075080;28;20266;-63
2022/10/19 14:52:40;;;;;;;8.73;5.10;;;;;;;17.30;73.95;97140.09;2084874;28;20200;-65
2022/10/19 14:53:55;;;;;;;6.13;4.82;;;;;;;17.06;74.30;97145.13;2088341;28;20316;-63
2022/10/19 14:54:59;;;;;;;13.20;5.05;;;;;;;17.13;74.03;97146.44;2081645;28;20307;-63
2022/10/19 14:56:08;;;;;;;11.65;4.90;;;;;;;17.23;74.11;97140.59;2069440;28;20253;-62
2022/10/19 14:57:27;;;;;;;11.20;4.60;;;;;;;17.33;74.10;97139.06;2082549;28;20270;-63
2022/10/19 14:58:37;;;;;;;7.10;4.05;;;;;;;17.25;74.28;97136.06;2074170;28;20280;-65
2022/10/19 15:00:01;;;;;;;8.52;4.72;;;;;;;17.96;71.65;97115.63;2071678;28;20257;-65
2022/10/19 15:01:03;;;;;;;9.32;4.45;;;;;;;17.97;70.47;97113.81;2075078;28;20225;-65
2022/10/19 15:02:25;;;;;;;16.38;4.82;;;;;;;17.55;72.72;97135.88;2075578;28;20237;-65
2022/10/19 15:03:28;;;;;;;8.73;4.47;;;;;;;17.23;73.86;97128.25;2074942;28;20243;-65
2022/10/19 15:04:36;;;;;;;7.97;4.32;;;;;;;17.49;73.30;97127.53;2076693;28;20205;-65
2022/10/19 15:05:47;;;;;;;11.00;4.25;;;;;;;17.99;71.59;97133.94;2068043;28;20232;-65
2022/10/19 15:06:48;;;;;;;10.43;3.95;;;;;;;18.37;70.73;97140.19;2082471;28;20354;-65
2022/10/19 15:07:50;;;;;;;6.72;3.85;;;;;;;17.69;72.09;97134.13;2077242;28;20725;-65
2022/10/19 15:15:33;;;;;;;10.80;4.85;;;;;;;16.73;75.04;97143.63;2076727;28;20201;-65
2022/10/19 15:16:38;;;;;;;7.30;5.38;;;;;;;16.44;75.92;97143.66;2076118;28;20201;-65
2022/10/19 15:18:00;;;;;;;9.90;5.40;;;;;;;16.27;77.10;97135.91;2073445;28;20252;-65
2022/10/19 15:19:05;;;;;;;9.85;5.43;;;;;;;15.99;77.55;97143.63;2071343;28;20199;-65
2022/10/19 15:20:22;;;;;;;8.13;5.90;;;;;;;15.66;78.25;97120.94;2069922;28;20198;-65
2022/10/19 15:21:24;;;;;;;6.75;4.45;;;;;;;15.65;78.59;97135.03;2073723;28;20323;-65
2022/10/19 15:22:31;;;;;;;12.93;5.75;;;;;;;15.86;78.72;97136.53;2083308;28;20566;-65
2022/10/19 15:23:47;;;;;;;8.07;5.28;;;;;;;15.79;78.38;97136.03;2067199;28;20198;-65
2022/10/19 15:25:07;;;;;;;7.38;4.38;;;;;;;15.88;77.91;97134.69;2070746;28;20197;-65
2022/10/19 15:26:28;;;;;;;6.80;4.97;;;;;;;15.45;78.93;97130.06;2071750;28;20715;-65
2022/10/19 15:27:29;;;;;;;5.80;4.35;;;;;;;15.60;79.05;97129.19;2075832;28;20300;-65
2022/10/19 15:28:35;;;;;;;11.68;4.95;;;;;;;15.66;78.62;97126.19;2076043;28;20193;-65
2022/10/19 15:29:58;;;;;;;9.68;4.85;;;;;;;15.85;78.33;97124.34;2072805;28;20312;-63
2022/10/19 15:31:04;;;;;;;7.47;3.78;;;;;;;15.80;78.21;97121.94;2069460;28;20301;-63
2022/10/19 15:32:13;;;;;;;9.05;4.05;;;;;;;15.83;78.24;97119.13;2064731;28;20847;-63
2022/10/19 15:33:14;;;;;;;6.85;4.57;;;;;;;15.84;77.90;97102.41;2068301;28;20284;-63
2022/10/19 15:34:26;;;;;;;11.13;4.30;;;;;;;15.77;78.15;97115.06;2071311;28;20632;-63
2022/10/19 15:35:39;;;;;;;9.48;4.13;;;;;;;15.60;78.66;97113.38;2065910;28;20284;-63
